sensor_id;sensor_type;location;lat;lon;timestamp;temperature;humidity
20349;DHT22;10332;50.208;18.988;2024-02-26T00:02:01;8.40;1.00
20349;DHT22;10332;50.208;18.988;2024-02-26T00:04:28;8.30;1.00
20349;DHT22;10332;50.208;18.988;2024-02-26T00:06:55;8.30;1.00
20349;DHT22;10332;50.208;18.988;2024-02-26T00:09:23;8.30;1.00
20349;DHT22;10332;50.208;18.988;2024-02-26T00:11:50;8.20;1.00
20349;DHT22;10332;50.208;18.988;2024-02-26T00:14:18;8.20;18.10
20349;DHT22;10332;50.208;18.988;2024-02-26T00:16:45;8.20;1.00
20349;DHT22;10332;50.208;18.988;2024-02-26T00:19:12;8.20;1.00
20349;DHT22;10332;50.208;18.988;2024-02-26T00:21:43;8.20;62.80
20349;DHT22;10332;50.208;18.988;2024-02-26T00:24:10;8.20;99.90
20349;DHT22;10332;50.208;18.988;2024-02-26T00:26:37;8.20;98.00
20349;DHT22;10332;50.208;18.988;2024-02-26T00:29:05;8.10;67.70
20349;DHT22;10332;50.208;18.988;2024-02-26T00:31:33;8.10;99.90
20349;DHT22;10332;50.208;18.988;2024-02-26T00:34:00;8.10;99.90
20349;DHT22;10332;50.208;18.988;2024-02-26T00:36:28;8.10;99.90
20349;DHT22;10332;50.208;18.988;2024-02-26T00:38:55;8.10;89.60
20349;DHT22;10332;50.208;18.988;2024-02-26T00:41:23;8.00;99.90
20349;DHT22;10332;50.208;18.988;2024-02-26T00:43:50;8.00;99.90
20349;DHT22;10332;50.208;18.988;2024-02-26T00:46:18;8.00;99.90
20349;DHT22;10332;50.208;18.988;2024-02-26T00:48:45;8.00;99.90
20349;DHT22;10332;50.208;18.988;2024-02-26T00:51:13;7.90;99.90
20349;DHT22;10332;50.208;18.988;2024-02-26T00:53:41;7.90;99.90
20349;DHT22;10332;50.208;18.988;2024-02-26T00:56:08;7.90;99.90
20349;DHT22;10332;50.208;18.988;2024-02-26T00:58:35;7.80;99.90
20349;DHT22;10332;50.208;18.988;2024-02-26T01:01:03;7.90;99.90
20349;DHT22;10332;50.208;18.988;2024-02-26T01:03:31;7.80;1.00
20349;DHT22;10332;50.208;18.988;2024-02-26T01:05:59;7.80;1.00
20349;DHT22;10332;50.208;18.988;2024-02-26T01:08:26;7.90;1.00
20349;DHT22;10332;50.208;18.988;2024-02-26T01:10:53;7.80;1.00
20349;DHT22;10332;50.208;18.988;2024-02-26T01:13:21;7.80;99.90
20349;DHT22;10332;50.208;18.988;2024-02-26T01:15:48;7.80;99.90
20349;DHT22;10332;50.208;18.988;2024-02-26T01:18:15;7.80;99.90
20349;DHT22;10332;50.208;18.988;2024-02-26T01:20:43;7.80;99.90
20349;DHT22;10332;50.208;18.988;2024-02-26T01:23:10;7.70;1.00
20349;DHT22;10332;50.208;18.988;2024-02-26T01:25:38;7.70;99.90
20349;DHT22;10332;50.208;18.988;2024-02-26T01:28:05;7.70;99.90
20349;DHT22;10332;50.208;18.988;2024-02-26T01:30:33;7.70;1.00
20349;DHT22;10332;50.208;18.988;2024-02-26T01:33:01;7.60;1.00
20349;DHT22;10332;50.208;18.988;2024-02-26T01:35:28;7.60;1.00
20349;DHT22;10332;50.208;18.988;2024-02-26T01:37:56;7.60;1.00
20349;DHT22;10332;50.208;18.988;2024-02-26T01:40:27;7.50;1.00
20349;DHT22;10332;50.208;18.988;2024-02-26T01:42:54;7.50;1.00
20349;DHT22;10332;50.208;18.988;2024-02-26T01:45:22;7.50;1.00
20349;DHT22;10332;50.208;18.988;2024-02-26T01:47:52;7.50;1.00
20349;DHT22;10332;50.208;18.988;2024-02-26T01:50:21;7.50;1.00
20349;DHT22;10332;50.208;18.988;2024-02-26T01:52:50;7.50;1.00
20349;DHT22;10332;50.208;18.988;2024-02-26T01:55:18;7.50;1.00
20349;DHT22;10332;50.208;18.988;2024-02-26T01:57:48;7.40;1.00
20349;DHT22;10332;50.208;18.988;2024-02-26T02:00:16;7.40;12.60
20349;DHT22;10332;50.208;18.988;2024-02-26T02:02:45;7.40;1.00
20349;DHT22;10332;50.208;18.988;2024-02-26T02:05:16;7.40;1.00
20349;DHT22;10332;50.208;18.988;2024-02-26T02:07:46;7.30;1.00
20349;DHT22;10332;50.208;18.988;2024-02-26T02:10:16;7.30;30.80
20349;DHT22;10332;50.208;18.988;2024-02-26T02:12:45;7.30;67.00
20349;DHT22;10332;50.208;18.988;2024-02-26T02:15:13;7.30;1.00
20349;DHT22;10332;50.208;18.988;2024-02-26T02:17:40;7.30;1.00
20349;DHT22;10332;50.208;18.988;2024-02-26T02:20:09;7.30;94.30
20349;DHT22;10332;50.208;18.988;2024-02-26T02:22:37;7.30;53.30
20349;DHT22;10332;50.208;18.988;2024-02-26T02:25:06;7.20;99.90
20349;DHT22;10332;50.208;18.988;2024-02-26T02:27:33;7.20;55.10
20349;DHT22;10332;50.208;18.988;2024-02-26T02:30:01;7.20;99.90
20349;DHT22;10332;50.208;18.988;2024-02-26T02:32:29;7.20;99.90
20349;DHT22;10332;50.208;18.988;2024-02-26T02:34:57;7.20;99.90
20349;DHT22;10332;50.208;18.988;2024-02-26T02:37:24;7.20;99.90
20349;DHT22;10332;50.208;18.988;2024-02-26T02:39:51;7.20;99.90
20349;DHT22;10332;50.208;18.988;2024-02-26T02:42:21;7.20;99.90
20349;DHT22;10332;50.208;18.988;2024-02-26T02:44:48;7.20;76.00
20349;DHT22;10332;50.208;18.988;2024-02-26T02:47:16;7.20;99.90
20349;DHT22;10332;50.208;18.988;2024-02-26T02:49:43;7.20;99.90
20349;DHT22;10332;50.208;18.988;2024-02-26T02:52:10;7.20;99.90
20349;DHT22;10332;50.208;18.988;2024-02-26T02:54:38;7.20;99.90
20349;DHT22;10332;50.208;18.988;2024-02-26T02:57:09;7.20;99.90
20349;DHT22;10332;50.208;18.988;2024-02-26T02:59:37;7.20;99.90
20349;DHT22;10332;50.208;18.988;2024-02-26T03:02:05;7.20;99.90
20349;DHT22;10332;50.208;18.988;2024-02-26T03:04:33;7.20;99.90
20349;DHT22;10332;50.208;18.988;2024-02-26T03:07:01;7.20;99.90
20349;DHT22;10332;50.208;18.988;2024-02-26T03:09:29;7.20;99.90
20349;DHT22;10332;50.208;18.988;2024-02-26T03:11:56;7.10;99.90
20349;DHT22;10332;50.208;18.988;2024-02-26T03:14:24;7.20;99.90
20349;DHT22;10332;50.208;18.988;2024-02-26T03:16:55;7.10;99.90
20349;DHT22;10332;50.208;18.988;2024-02-26T03:19:22;7.10;99.90
20349;DHT22;10332;50.208;18.988;2024-02-26T03:21:52;7.10;99.90
20349;DHT22;10332;50.208;18.988;2024-02-26T03:24:19;7.10;99.90
20349;DHT22;10332;50.208;18.988;2024-02-26T03:26:47;7.10;99.90
20349;DHT22;10332;50.208;18.988;2024-02-26T03:29:14;7.10;99.90
20349;DHT22;10332;50.208;18.988;2024-02-26T03:31:42;7.10;99.90
20349;DHT22;10332;50.208;18.988;2024-02-26T03:34:09;7.00;99.90
20349;DHT22;10332;50.208;18.988;2024-02-26T03:36:37;7.00;99.90
20349;DHT22;10332;50.208;18.988;2024-02-26T03:39:04;6.90;99.90
20349;DHT22;10332;50.208;18.988;2024-02-26T03:41:34;6.90;99.90
20349;DHT22;10332;50.208;18.988;2024-02-26T03:44:02;6.90;99.90
20349;DHT22;10332;50.208;18.988;2024-02-26T03:46:30;6.80;99.90
20349;DHT22;10332;50.208;18.988;2024-02-26T03:48:57;6.80;1.00
20349;DHT22;10332;50.208;18.988;2024-02-26T03:51:26;6.80;1.00
20349;DHT22;10332;50.208;18.988;2024-02-26T03:53:55;6.80;1.00
20349;DHT22;10332;50.208;18.988;2024-02-26T03:56:22;6.80;1.00
20349;DHT22;10332;50.208;18.988;2024-02-26T03:58:50;6.70;1.00
20349;DHT22;10332;50.208;18.988;2024-02-26T04:01:17;6.70;1.00
20349;DHT22;10332;50.208;18.988;2024-02-26T04:03:45;6.70;1.00
20349;DHT22;10332;50.208;18.988;2024-02-26T04:06:12;6.60;1.00
20349;DHT22;10332;50.208;18.988;2024-02-26T04:08:46;6.60;1.00
20349;DHT22;10332;50.208;18.988;2024-02-26T04:11:14;6.60;1.00
20349;DHT22;10332;50.208;18.988;2024-02-26T04:13:45;6.60;1.00
20349;DHT22;10332;50.208;18.988;2024-02-26T04:16:13;6.50;1.00
20349;DHT22;10332;50.208;18.988;2024-02-26T04:18:42;6.50;1.00
20349;DHT22;10332;50.208;18.988;2024-02-26T04:21:09;6.50;1.00
20349;DHT22;10332;50.208;18.988;2024-02-26T04:23:37;6.50;1.00
20349;DHT22;10332;50.208;18.988;2024-02-26T04:26:05;6.40;1.00
20349;DHT22;10332;50.208;18.988;2024-02-26T04:28:32;6.40;1.00
20349;DHT22;10332;50.208;18.988;2024-02-26T04:30:59;6.30;99.90
20349;DHT22;10332;50.208;18.988;2024-02-26T04:33:27;6.30;99.90
20349;DHT22;10332;50.208;18.988;2024-02-26T04:35:54;6.30;99.90
20349;DHT22;10332;50.208;18.988;2024-02-26T04:38:22;6.20;99.90
20349;DHT22;10332;50.208;18.988;2024-02-26T04:40:49;6.20;1.00
20349;DHT22;10332;50.208;18.988;2024-02-26T04:43:17;6.10;1.00
20349;DHT22;10332;50.208;18.988;2024-02-26T04:45:45;6.10;1.00
20349;DHT22;10332;50.208;18.988;2024-02-26T04:48:12;6.10;1.00
20349;DHT22;10332;50.208;18.988;2024-02-26T04:50:40;6.10;1.00
20349;DHT22;10332;50.208;18.988;2024-02-26T04:53:08;6.10;1.00
20349;DHT22;10332;50.208;18.988;2024-02-26T04:55:35;6.10;1.00
20349;DHT22;10332;50.208;18.988;2024-02-26T04:58:02;6.10;1.00
20349;DHT22;10332;50.208;18.988;2024-02-26T05:00:30;6.10;1.00
20349;DHT22;10332;50.208;18.988;2024-02-26T05:02:57;6.10;1.00
20349;DHT22;10332;50.208;18.988;2024-02-26T05:05:25;6.10;1.00
20349;DHT22;10332;50.208;18.988;2024-02-26T05:07:52;6.10;1.00
20349;DHT22;10332;50.208;18.988;2024-02-26T05:10:19;6.10;1.00
20349;DHT22;10332;50.208;18.988;2024-02-26T05:12:47;6.10;1.00
20349;DHT22;10332;50.208;18.988;2024-02-26T05:15:15;6.10;1.00
20349;DHT22;10332;50.208;18.988;2024-02-26T05:17:45;6.10;1.00
20349;DHT22;10332;50.208;18.988;2024-02-26T05:20:13;6.10;1.00
20349;DHT22;10332;50.208;18.988;2024-02-26T05:22:42;6.20;1.00
20349;DHT22;10332;50.208;18.988;2024-02-26T05:25:09;6.20;1.00
20349;DHT22;10332;50.208;18.988;2024-02-26T05:27:37;6.20;1.00
20349;DHT22;10332;50.208;18.988;2024-02-26T05:30:04;6.20;1.00
20349;DHT22;10332;50.208;18.988;2024-02-26T05:32:32;6.20;1.00
20349;DHT22;10332;50.208;18.988;2024-02-26T05:34:59;6.20;1.00
20349;DHT22;10332;50.208;18.988;2024-02-26T05:37:27;6.20;1.00
20349;DHT22;10332;50.208;18.988;2024-02-26T05:39:54;6.20;1.00
20349;DHT22;10332;50.208;18.988;2024-02-26T05:42:22;6.20;1.00
20349;DHT22;10332;50.208;18.988;2024-02-26T05:44:49;6.20;1.00
20349;DHT22;10332;50.208;18.988;2024-02-26T05:47:17;6.20;1.00
20349;DHT22;10332;50.208;18.988;2024-02-26T05:49:45;6.20;1.00
20349;DHT22;10332;50.208;18.988;2024-02-26T05:52:12;6.30;1.00
20349;DHT22;10332;50.208;18.988;2024-02-26T05:54:39;6.30;99.90
20349;DHT22;10332;50.208;18.988;2024-02-26T05:57:07;6.30;99.90
20349;DHT22;10332;50.208;18.988;2024-02-26T05:59:34;6.40;99.90
20349;DHT22;10332;50.208;18.988;2024-02-26T06:02:01;6.40;99.90
20349;DHT22;10332;50.208;18.988;2024-02-26T06:04:29;6.50;99.90
20349;DHT22;10332;50.208;18.988;2024-02-26T06:06:57;6.60;99.90
20349;DHT22;10332;50.208;18.988;2024-02-26T06:09:24;6.70;99.90
20349;DHT22;10332;50.208;18.988;2024-02-26T06:11:52;6.70;31.40
20349;DHT22;10332;50.208;18.988;2024-02-26T06:14:20;6.80;1.00
20349;DHT22;10332;50.208;18.988;2024-02-26T06:16:47;6.90;1.00
20349;DHT22;10332;50.208;18.988;2024-02-26T06:19:15;6.90;1.00
20349;DHT22;10332;50.208;18.988;2024-02-26T06:21:43;7.00;1.00
20349;DHT22;10332;50.208;18.988;2024-02-26T06:24:10;7.10;1.00
20349;DHT22;10332;50.208;18.988;2024-02-26T06:26:37;7.20;1.00
20349;DHT22;10332;50.208;18.988;2024-02-26T06:29:04;7.30;1.00
20349;DHT22;10332;50.208;18.988;2024-02-26T06:31:32;7.40;1.00
20349;DHT22;10332;50.208;18.988;2024-02-26T06:33:59;7.50;99.90
20349;DHT22;10332;50.208;18.988;2024-02-26T06:36:27;7.50;99.90
20349;DHT22;10332;50.208;18.988;2024-02-26T06:38:55;7.60;99.90
20349;DHT22;10332;50.208;18.988;2024-02-26T06:41:22;7.70;99.90
20349;DHT22;10332;50.208;18.988;2024-02-26T06:43:54;7.90;99.90
20349;DHT22;10332;50.208;18.988;2024-02-26T06:46:23;8.00;67.30
20349;DHT22;10332;50.208;18.988;2024-02-26T06:48:51;8.20;1.00
20349;DHT22;10332;50.208;18.988;2024-02-26T06:51:22;8.30;1.00
20349;DHT22;10332;50.208;18.988;2024-02-26T06:53:50;8.40;1.00
20349;DHT22;10332;50.208;18.988;2024-02-26T06:56:18;8.50;1.00
20349;DHT22;10332;50.208;18.988;2024-02-26T06:58:45;8.60;1.00
20349;DHT22;10332;50.208;18.988;2024-02-26T07:01:13;8.80;1.00
20349;DHT22;10332;50.208;18.988;2024-02-26T07:03:40;8.80;1.00
20349;DHT22;10332;50.208;18.988;2024-02-26T07:06:08;9.00;1.00
20349;DHT22;10332;50.208;18.988;2024-02-26T07:08:36;9.10;1.00
20349;DHT22;10332;50.208;18.988;2024-02-26T07:11:07;9.30;99.90
20349;DHT22;10332;50.208;18.988;2024-02-26T07:13:35;9.50;99.90
20349;DHT22;10332;50.208;18.988;2024-02-26T07:16:03;9.60;99.90
20349;DHT22;10332;50.208;18.988;2024-02-26T07:18:30;9.70;99.90
20349;DHT22;10332;50.208;18.988;2024-02-26T07:20:58;9.80;99.90
20349;DHT22;10332;50.208;18.988;2024-02-26T07:23:28;9.80;99.90
20349;DHT22;10332;50.208;18.988;2024-02-26T07:25:56;9.80;99.90
20349;DHT22;10332;50.208;18.988;2024-02-26T07:28:26;9.80;99.90
20349;DHT22;10332;50.208;18.988;2024-02-26T07:30:54;9.90;99.90
20349;DHT22;10332;50.208;18.988;2024-02-26T07:33:21;10.00;99.90
20349;DHT22;10332;50.208;18.988;2024-02-26T07:35:50;10.10;97.80
20349;DHT22;10332;50.208;18.988;2024-02-26T07:38:17;10.20;80.70
20349;DHT22;10332;50.208;18.988;2024-02-26T07:40:58;10.30;7.90
20349;DHT22;10332;50.208;18.988;2024-02-26T07:43:29;10.50;1.00
20349;DHT22;10332;50.208;18.988;2024-02-26T07:45:58;10.60;1.00
20349;DHT22;10332;50.208;18.988;2024-02-26T07:48:25;10.70;1.00
20349;DHT22;10332;50.208;18.988;2024-02-26T07:50:53;10.90;1.00
20349;DHT22;10332;50.208;18.988;2024-02-26T07:53:22;11.10;1.00
20349;DHT22;10332;50.208;18.988;2024-02-26T07:55:50;11.30;1.00
20349;DHT22;10332;50.208;18.988;2024-02-26T07:58:17;11.50;1.00
20349;DHT22;10332;50.208;18.988;2024-02-26T08:00:45;12.00;1.00
20349;DHT22;10332;50.208;18.988;2024-02-26T08:03:13;12.40;1.00
20349;DHT22;10332;50.208;18.988;2024-02-26T08:05:43;13.00;1.00
20349;DHT22;10332;50.208;18.988;2024-02-26T08:08:10;13.70;99.90
20349;DHT22;10332;50.208;18.988;2024-02-26T08:10:38;14.90;99.90
20349;DHT22;10332;50.208;18.988;2024-02-26T08:13:05;16.20;99.90
20349;DHT22;10332;50.208;18.988;2024-02-26T08:15:33;17.10;99.90
20349;DHT22;10332;50.208;18.988;2024-02-26T08:18:01;16.60;99.90
20349;DHT22;10332;50.208;18.988;2024-02-26T08:20:31;16.20;99.90
20349;DHT22;10332;50.208;18.988;2024-02-26T08:22:59;16.20;99.90
20349;DHT22;10332;50.208;18.988;2024-02-26T08:25:26;16.60;99.90
20349;DHT22;10332;50.208;18.988;2024-02-26T08:27:54;16.90;99.90
20349;DHT22;10332;50.208;18.988;2024-02-26T08:30:22;17.10;99.90
20349;DHT22;10332;50.208;18.988;2024-02-26T08:32:49;17.80;95.70
20349;DHT22;10332;50.208;18.988;2024-02-26T08:35:19;18.70;72.30
20349;DHT22;10332;50.208;18.988;2024-02-26T08:37:47;19.60;45.00
20349;DHT22;10332;50.208;18.988;2024-02-26T08:40:15;20.60;21.80
20349;DHT22;10332;50.208;18.988;2024-02-26T08:42:42;22.20;1.00
20349;DHT22;10332;50.208;18.988;2024-02-26T08:45:10;22.90;1.00
20349;DHT22;10332;50.208;18.988;2024-02-26T08:47:38;23.00;1.00
20349;DHT22;10332;50.208;18.988;2024-02-26T08:50:06;24.70;1.00
20349;DHT22;10332;50.208;18.988;2024-02-26T08:52:33;28.50;1.00
20349;DHT22;10332;50.208;18.988;2024-02-26T08:55:01;29.60;1.00
20349;DHT22;10332;50.208;18.988;2024-02-26T08:57:28;31.60;1.00
20349;DHT22;10332;50.208;18.988;2024-02-26T08:59:56;34.00;1.00
20349;DHT22;10332;50.208;18.988;2024-02-26T09:02:23;35.10;1.00
20349;DHT22;10332;50.208;18.988;2024-02-26T09:04:51;33.50;1.00
20349;DHT22;10332;50.208;18.988;2024-02-26T09:07:21;33.30;1.00
20349;DHT22;10332;50.208;18.988;2024-02-26T09:09:49;31.70;1.00
20349;DHT22;10332;50.208;18.988;2024-02-26T09:12:16;29.40;1.00
20349;DHT22;10332;50.208;18.988;2024-02-26T09:14:44;27.20;1.00
20349;DHT22;10332;50.208;18.988;2024-02-26T09:17:11;25.30;1.00
20349;DHT22;10332;50.208;18.988;2024-02-26T09:19:40;23.90;1.00
20349;DHT22;10332;50.208;18.988;2024-02-26T09:22:10;22.70;1.00
20349;DHT22;10332;50.208;18.988;2024-02-26T09:24:39;21.80;1.00
20349;DHT22;10332;50.208;18.988;2024-02-26T09:27:07;22.50;1.00
20349;DHT22;10332;50.208;18.988;2024-02-26T09:29:35;21.80;1.00
20349;DHT22;10332;50.208;18.988;2024-02-26T09:32:03;21.30;1.00
20349;DHT22;10332;50.208;18.988;2024-02-26T09:34:30;23.80;1.00
20349;DHT22;10332;50.208;18.988;2024-02-26T09:36:58;23.80;1.00
20349;DHT22;10332;50.208;18.988;2024-02-26T09:39:38;23.30;1.00
20349;DHT22;10332;50.208;18.988;2024-02-26T09:42:05;22.70;1.00
20349;DHT22;10332;50.208;18.988;2024-02-26T09:44:40;22.00;1.00
20349;DHT22;10332;50.208;18.988;2024-02-26T09:47:11;21.70;1.00
20349;DHT22;10332;50.208;18.988;2024-02-26T09:49:41;21.60;1.00
20349;DHT22;10332;50.208;18.988;2024-02-26T09:52:09;21.60;1.00
20349;DHT22;10332;50.208;18.988;2024-02-26T09:54:38;22.10;1.00
20349;DHT22;10332;50.208;18.988;2024-02-26T09:57:09;22.00;1.00
20349;DHT22;10332;50.208;18.988;2024-02-26T09:59:43;21.60;1.00
20349;DHT22;10332;50.208;18.988;2024-02-26T10:02:14;21.10;1.00
20349;DHT22;10332;50.208;18.988;2024-02-26T10:04:43;20.70;1.00
20349;DHT22;10332;50.208;18.988;2024-02-26T10:07:16;20.20;1.00
20349;DHT22;10332;50.208;18.988;2024-02-26T10:09:44;19.90;1.00
20349;DHT22;10332;50.208;18.988;2024-02-26T10:12:12;21.80;1.00
20349;DHT22;10332;50.208;18.988;2024-02-26T10:14:40;22.10;1.00
20349;DHT22;10332;50.208;18.988;2024-02-26T10:17:07;22.00;1.00
20349;DHT22;10332;50.208;18.988;2024-02-26T10:19:36;22.20;1.00
20349;DHT22;10332;50.208;18.988;2024-02-26T10:22:05;24.70;1.00
20349;DHT22;10332;50.208;18.988;2024-02-26T10:24:33;25.60;1.00
20349;DHT22;10332;50.208;18.988;2024-02-26T10:27:03;26.00;1.00
20349;DHT22;10332;50.208;18.988;2024-02-26T10:29:31;26.90;1.00
20349;DHT22;10332;50.208;18.988;2024-02-26T10:31:58;30.40;1.00
20349;DHT22;10332;50.208;18.988;2024-02-26T10:34:26;31.90;1.00
20349;DHT22;10332;50.208;18.988;2024-02-26T10:36:55;33.50;1.00
20349;DHT22;10332;50.208;18.988;2024-02-26T10:39:23;33.40;1.00
20349;DHT22;10332;50.208;18.988;2024-02-26T10:41:50;34.80;1.00
20349;DHT22;10332;50.208;18.988;2024-02-26T10:44:18;35.40;1.00
20349;DHT22;10332;50.208;18.988;2024-02-26T10:46:47;36.50;1.00
20349;DHT22;10332;50.208;18.988;2024-02-26T10:49:17;35.00;1.00
20349;DHT22;10332;50.208;18.988;2024-02-26T10:51:55;33.00;1.00
20349;DHT22;10332;50.208;18.988;2024-02-26T10:54:27;30.60;1.00
20349;DHT22;10332;50.208;18.988;2024-02-26T10:56:56;28.60;1.00
20349;DHT22;10332;50.208;18.988;2024-02-26T10:59:26;27.50;1.00
20349;DHT22;10332;50.208;18.988;2024-02-26T11:01:54;26.30;1.00
20349;DHT22;10332;50.208;18.988;2024-02-26T11:04:23;25.30;1.00
20349;DHT22;10332;50.208;18.988;2024-02-26T11:06:57;24.30;1.00
20349;DHT22;10332;50.208;18.988;2024-02-26T11:09:25;23.60;1.00
20349;DHT22;10332;50.208;18.988;2024-02-26T11:11:54;23.00;1.00
20349;DHT22;10332;50.208;18.988;2024-02-26T11:14:24;22.50;1.00
20349;DHT22;10332;50.208;18.988;2024-02-26T11:16:54;22.10;1.00
20349;DHT22;10332;50.208;18.988;2024-02-26T11:19:24;22.00;1.00
20349;DHT22;10332;50.208;18.988;2024-02-26T11:21:52;21.80;1.00
20349;DHT22;10332;50.208;18.988;2024-02-26T11:24:19;21.40;1.00
20349;DHT22;10332;50.208;18.988;2024-02-26T11:26:52;20.90;1.00
20349;DHT22;10332;50.208;18.988;2024-02-26T11:29:34;20.60;1.00
20349;DHT22;10332;50.208;18.988;2024-02-26T11:32:03;20.60;1.00
20349;DHT22;10332;50.208;18.988;2024-02-26T11:34:31;21.00;1.00
20349;DHT22;10332;50.208;18.988;2024-02-26T11:37:12;21.90;1.00
20349;DHT22;10332;50.208;18.988;2024-02-26T11:39:45;22.00;1.00
20349;DHT22;10332;50.208;18.988;2024-02-26T11:42:16;21.90;1.00
20349;DHT22;10332;50.208;18.988;2024-02-26T11:44:45;22.80;1.00
20349;DHT22;10332;50.208;18.988;2024-02-26T11:47:20;22.80;1.00
20349;DHT22;10332;50.208;18.988;2024-02-26T11:49:48;22.50;1.00
20349;DHT22;10332;50.208;18.988;2024-02-26T11:52:16;22.10;1.00
20349;DHT22;10332;50.208;18.988;2024-02-26T11:57:30;21.30;1.00
20349;DHT22;10332;50.208;18.988;2024-02-26T12:02:52;20.50;1.00
20349;DHT22;10332;50.208;18.988;2024-02-26T12:05:26;20.20;1.00
20349;DHT22;10332;50.208;18.988;2024-02-26T12:08:00;20.10;1.00
20349;DHT22;10332;50.208;18.988;2024-02-26T12:10:31;19.80;1.00
20349;DHT22;10332;50.208;18.988;2024-02-26T12:15:36;19.10;1.00
20349;DHT22;10332;50.208;18.988;2024-02-26T12:18:06;18.70;1.00
20349;DHT22;10332;50.208;18.988;2024-02-26T12:20:35;18.40;1.00
20349;DHT22;10332;50.208;18.988;2024-02-26T12:23:03;18.00;1.00
20349;DHT22;10332;50.208;18.988;2024-02-26T12:25:32;17.80;1.00
20349;DHT22;10332;50.208;18.988;2024-02-26T12:28:00;17.70;1.00
20349;DHT22;10332;50.208;18.988;2024-02-26T12:30:27;17.60;1.00
20349;DHT22;10332;50.208;18.988;2024-02-26T12:32:58;17.40;1.00
20349;DHT22;10332;50.208;18.988;2024-02-26T12:35:28;17.30;1.00
20349;DHT22;10332;50.208;18.988;2024-02-26T12:37:58;17.10;1.00
20349;DHT22;10332;50.208;18.988;2024-02-26T12:40:26;17.00;1.00
20349;DHT22;10332;50.208;18.988;2024-02-26T12:42:54;16.90;1.00
20349;DHT22;10332;50.208;18.988;2024-02-26T12:45:22;16.80;1.00
20349;DHT22;10332;50.208;18.988;2024-02-26T12:47:49;16.80;1.00
20349;DHT22;10332;50.208;18.988;2024-02-26T12:50:17;16.80;1.00
20349;DHT22;10332;50.208;18.988;2024-02-26T12:52:46;16.70;1.00
20349;DHT22;10332;50.208;18.988;2024-02-26T12:55:21;16.70;1.00
20349;DHT22;10332;50.208;18.988;2024-02-26T12:57:48;16.70;1.00
20349;DHT22;10332;50.208;18.988;2024-02-26T13:00:21;16.70;1.00
20349;DHT22;10332;50.208;18.988;2024-02-26T13:02:50;16.60;1.00
20349;DHT22;10332;50.208;18.988;2024-02-26T13:05:19;16.50;1.00
20349;DHT22;10332;50.208;18.988;2024-02-26T13:07:47;16.50;1.00
20349;DHT22;10332;50.208;18.988;2024-02-26T13:10:14;16.50;1.00
20349;DHT22;10332;50.208;18.988;2024-02-26T13:12:46;16.50;1.00
20349;DHT22;10332;50.208;18.988;2024-02-26T13:15:19;16.40;1.00
20349;DHT22;10332;50.208;18.988;2024-02-26T13:17:47;16.40;1.00
20349;DHT22;10332;50.208;18.988;2024-02-26T13:20:27;16.40;1.00
20349;DHT22;10332;50.208;18.988;2024-02-26T13:23:10;16.50;1.00
20349;DHT22;10332;50.208;18.988;2024-02-26T13:25:38;16.40;1.00
20349;DHT22;10332;50.208;18.988;2024-02-26T13:28:16;16.40;1.00
20349;DHT22;10332;50.208;18.988;2024-02-26T13:30:55;16.40;1.00
20349;DHT22;10332;50.208;18.988;2024-02-26T13:33:30;16.30;1.00
20349;DHT22;10332;50.208;18.988;2024-02-26T13:35:58;16.30;1.00
20349;DHT22;10332;50.208;18.988;2024-02-26T13:38:27;16.30;1.00
20349;DHT22;10332;50.208;18.988;2024-02-26T13:40:55;16.30;1.00
20349;DHT22;10332;50.208;18.988;2024-02-26T13:43:22;16.40;1.00
20349;DHT22;10332;50.208;18.988;2024-02-26T13:45:50;16.40;3.60
20349;DHT22;10332;50.208;18.988;2024-02-26T13:48:17;16.40;6.30
20349;DHT22;10332;50.208;18.988;2024-02-26T13:50:45;16.40;10.70
20349;DHT22;10332;50.208;18.988;2024-02-26T13:53:13;16.40;13.50
20349;DHT22;10332;50.208;18.988;2024-02-26T13:55:42;16.40;17.50
20349;DHT22;10332;50.208;18.988;2024-02-26T13:58:14;16.40;23.20
20349;DHT22;10332;50.208;18.988;2024-02-26T14:00:42;16.40;27.00
20349;DHT22;10332;50.208;18.988;2024-02-26T14:03:10;16.30;33.90
20349;DHT22;10332;50.208;18.988;2024-02-26T14:05:38;16.20;41.10
20349;DHT22;10332;50.208;18.988;2024-02-26T14:08:06;16.20;52.80
20349;DHT22;10332;50.208;18.988;2024-02-26T14:10:34;16.10;59.50
20349;DHT22;10332;50.208;18.988;2024-02-26T14:13:02;16.00;72.50
20349;DHT22;10332;50.208;18.988;2024-02-26T14:15:29;16.00;84.00
20349;DHT22;10332;50.208;18.988;2024-02-26T14:17:58;15.90;90.70
20349;DHT22;10332;50.208;18.988;2024-02-26T14:20:26;15.90;96.80
20349;DHT22;10332;50.208;18.988;2024-02-26T14:22:53;15.90;99.90
20349;DHT22;10332;50.208;18.988;2024-02-26T14:25:21;15.80;99.90
20349;DHT22;10332;50.208;18.988;2024-02-26T14:27:49;15.80;99.90
20349;DHT22;10332;50.208;18.988;2024-02-26T14:30:17;15.70;99.90
20349;DHT22;10332;50.208;18.988;2024-02-26T14:32:44;15.70;99.90
20349;DHT22;10332;50.208;18.988;2024-02-26T14:35:12;15.70;99.90
20349;DHT22;10332;50.208;18.988;2024-02-26T14:37:44;15.60;99.90
20349;DHT22;10332;50.208;18.988;2024-02-26T14:40:15;15.50;99.90
20349;DHT22;10332;50.208;18.988;2024-02-26T14:42:43;15.50;99.90
20349;DHT22;10332;50.208;18.988;2024-02-26T14:45:11;15.40;99.90
20349;DHT22;10332;50.208;18.988;2024-02-26T14:47:41;15.40;99.90
20349;DHT22;10332;50.208;18.988;2024-02-26T14:50:09;15.40;99.90
20349;DHT22;10332;50.208;18.988;2024-02-26T14:52:36;15.40;99.90
20349;DHT22;10332;50.208;18.988;2024-02-26T14:55:04;15.30;99.90
20349;DHT22;10332;50.208;18.988;2024-02-26T14:57:32;15.30;99.90
20349;DHT22;10332;50.208;18.988;2024-02-26T15:00:00;15.30;99.90
20349;DHT22;10332;50.208;18.988;2024-02-26T15:02:30;15.30;99.90
20349;DHT22;10332;50.208;18.988;2024-02-26T15:04:58;15.30;99.90
20349;DHT22;10332;50.208;18.988;2024-02-26T15:07:25;15.20;99.90
20349;DHT22;10332;50.208;18.988;2024-02-26T15:09:52;15.20;99.90
20349;DHT22;10332;50.208;18.988;2024-02-26T15:12:24;15.20;99.90
20349;DHT22;10332;50.208;18.988;2024-02-26T15:14:53;15.20;99.90
20349;DHT22;10332;50.208;18.988;2024-02-26T15:17:20;15.20;99.90
20349;DHT22;10332;50.208;18.988;2024-02-26T15:19:47;15.20;99.90
20349;DHT22;10332;50.208;18.988;2024-02-26T15:22:15;15.20;99.90
20349;DHT22;10332;50.208;18.988;2024-02-26T15:24:44;15.20;99.90
20349;DHT22;10332;50.208;18.988;2024-02-26T15:27:14;15.20;99.90
20349;DHT22;10332;50.208;18.988;2024-02-26T15:29:42;15.20;99.90
20349;DHT22;10332;50.208;18.988;2024-02-26T15:32:10;15.20;99.90
20349;DHT22;10332;50.208;18.988;2024-02-26T15:34:38;15.20;99.90
20349;DHT22;10332;50.208;18.988;2024-02-26T15:37:05;15.10;99.90
20349;DHT22;10332;50.208;18.988;2024-02-26T15:39:33;15.10;99.90
20349;DHT22;10332;50.208;18.988;2024-02-26T15:42:01;15.10;99.90
20349;DHT22;10332;50.208;18.988;2024-02-26T15:44:38;15.00;99.90
20349;DHT22;10332;50.208;18.988;2024-02-26T15:47:06;15.00;99.90
20349;DHT22;10332;50.208;18.988;2024-02-26T15:49:34;14.90;99.90